createdAt,value
2024-03-31T00:00:35.500Z,5.20
2024-03-31T00:03:25.249Z,4.00
2024-03-31T00:05:58.602Z,3.40
2024-03-31T00:08:28.349Z,3.50
2024-03-31T00:11:02.406Z,4.30
2024-03-31T00:13:31.977Z,3.80
2024-03-31T00:16:01.607Z,3.90
2024-03-31T00:18:31.222Z,3.80
2024-03-31T00:21:01.177Z,5.20
2024-03-31T00:23:30.806Z,5.30
2024-03-31T00:26:01.501Z,4.60
2024-03-31T00:28:31.108Z,4.10
2024-03-31T00:31:01.602Z,4.00
2024-03-31T00:33:31.050Z,4.60
2024-03-31T00:36:00.712Z,3.60
2024-03-31T00:38:30.431Z,3.50
2024-03-31T00:41:00.190Z,4.80
2024-03-31T00:43:29.888Z,3.40
2024-03-31T00:45:59.550Z,4.00
2024-03-31T00:48:29.268Z,4.00
2024-03-31T00:50:58.820Z,4.20
2024-03-31T00:53:29.255Z,4.10
2024-03-31T00:56:02.016Z,4.70
2024-03-31T00:58:31.790Z,4.50
2024-03-31T01:01:01.510Z,4.60
2024-03-31T01:03:32.565Z,4.20
2024-03-31T01:06:22.928Z,4.10
2024-03-31T01:08:54.252Z,4.50
2024-03-31T01:11:25.138Z,4.20
2024-03-31T01:13:56.884Z,3.80
2024-03-31T01:16:27.734Z,4.50
2024-03-31T01:18:57.349Z,4.30
2024-03-31T01:21:29.318Z,4.20
2024-03-31T01:24:01.153Z,3.70
2024-03-31T01:26:31.640Z,4.80
2024-03-31T01:29:01.249Z,5.00
2024-03-31T01:31:31.338Z,4.70
2024-03-31T01:34:01.493Z,5.30
2024-03-31T01:36:30.945Z,5.00
2024-03-31T01:39:05.369Z,4.20
2024-03-31T01:41:37.529Z,5.10
2024-03-31T01:44:07.400Z,4.40
2024-03-31T01:46:36.929Z,4.50
2024-03-31T01:49:06.487Z,4.90
2024-03-31T01:51:36.543Z,4.10
2024-03-31T01:54:06.929Z,4.80
2024-03-31T01:56:38.637Z,4.00
2024-03-31T01:59:08.349Z,3.80
2024-03-31T02:01:37.936Z,4.00
2024-03-31T02:04:07.597Z,4.20
2024-03-31T02:06:37.124Z,4.50
2024-03-31T02:09:06.565Z,5.00
2024-03-31T02:11:36.167Z,4.00
2024-03-31T02:14:05.751Z,5.40
2024-03-31T02:16:38.439Z,5.90
2024-03-31T02:19:07.890Z,7.30
2024-03-31T02:21:37.550Z,7.10
2024-03-31T02:24:07.600Z,6.80
2024-03-31T02:26:37.172Z,6.70
2024-03-31T02:29:06.615Z,7.10
2024-03-31T02:31:36.165Z,8.00
2024-03-31T02:34:06.779Z,6.00
2024-03-31T02:36:37.091Z,6.60
2024-03-31T02:39:07.841Z,6.10
2024-03-31T02:41:37.811Z,6.10
2024-03-31T02:44:07.266Z,5.60
2024-03-31T02:46:36.888Z,6.50
2024-03-31T02:49:07.258Z,4.40
2024-03-31T02:51:37.338Z,5.70
2024-03-31T02:54:07.237Z,6.50
2024-03-31T02:56:37.674Z,5.80
2024-03-31T02:59:07.464Z,5.30
2024-03-31T03:01:37.342Z,5.40
2024-03-31T03:04:06.934Z,4.40
2024-03-31T03:06:36.549Z,4.40
2024-03-31T03:09:07.493Z,6.80
2024-03-31T03:11:37.125Z,6.10
2024-03-31T03:14:06.591Z,5.10
2024-03-31T03:16:36.250Z,5.20
2024-03-31T03:19:07.236Z,4.80
2024-03-31T03:21:36.962Z,5.60
2024-03-31T03:24:07.502Z,5.80
2024-03-31T03:26:38.222Z,7.60
2024-03-31T03:29:09.044Z,6.90
2024-03-31T03:31:38.555Z,7.90
2024-03-31T03:34:09.846Z,6.30
2024-03-31T03:36:39.551Z,6.30
2024-03-31T03:39:09.158Z,5.70
2024-03-31T03:41:39.135Z,5.60
2024-03-31T03:44:08.748Z,4.90
2024-03-31T03:46:38.634Z,4.90
2024-03-31T03:49:08.366Z,5.10
2024-03-31T03:51:40.083Z,5.90
2024-03-31T03:54:09.727Z,5.20
2024-03-31T03:56:42.349Z,5.60
2024-03-31T03:59:14.093Z,5.80
2024-03-31T04:01:43.966Z,5.70
2024-03-31T04:04:13.594Z,6.50
2024-03-31T04:06:44.942Z,5.20
2024-03-31T04:09:14.801Z,5.70
2024-03-31T04:11:44.297Z,5.30
2024-03-31T04:14:13.876Z,5.40
2024-03-31T04:16:43.575Z,5.60
2024-03-31T04:19:13.086Z,5.90
2024-03-31T04:21:42.775Z,5.40
2024-03-31T04:24:12.342Z,7.40
2024-03-31T04:26:41.918Z,5.70
2024-03-31T04:29:11.421Z,5.70
2024-03-31T04:31:58.310Z,6.40
2024-03-31T04:34:31.842Z,7.30
2024-03-31T04:37:02.448Z,5.70
2024-03-31T04:39:32.049Z,5.50
2024-03-31T04:42:01.754Z,5.80
2024-03-31T04:44:31.335Z,6.10
2024-03-31T04:47:01.654Z,6.20
2024-03-31T04:49:31.647Z,5.40
2024-03-31T04:52:02.174Z,5.50
2024-03-31T04:54:33.449Z,5.80
2024-03-31T04:57:03.366Z,5.50
2024-03-31T04:59:33.080Z,5.70
2024-03-31T05:02:02.719Z,5.00
2024-03-31T05:04:33.968Z,4.50
2024-03-31T05:07:03.507Z,4.60
2024-03-31T05:09:35.865Z,7.10
2024-03-31T05:12:05.743Z,8.40
2024-03-31T05:14:35.514Z,7.70
2024-03-31T05:17:05.826Z,5.50
2024-03-31T05:19:35.630Z,5.50
2024-03-31T05:22:06.833Z,5.00
2024-03-31T05:24:37.641Z,5.00
2024-03-31T05:27:07.517Z,5.40
2024-03-31T05:29:37.014Z,5.70
2024-03-31T05:32:09.154Z,8.40
2024-03-31T05:34:49.129Z,6.80
2024-03-31T05:37:18.938Z,5.40
2024-03-31T05:39:48.630Z,6.10
2024-03-31T05:42:19.780Z,5.70
2024-03-31T05:44:50.798Z,6.00
2024-03-31T05:47:21.568Z,9.70
2024-03-31T05:49:51.793Z,9.60
2024-03-31T05:52:23.906Z,7.60
2024-03-31T05:54:53.863Z,7.30
2024-03-31T05:57:23.801Z,8.50
2024-03-31T05:59:55.452Z,7.00
2024-03-31T06:02:25.566Z,8.30
2024-03-31T06:04:59.067Z,7.70
2024-03-31T06:07:31.086Z,6.30
2024-03-31T06:10:01.398Z,9.20
2024-03-31T06:12:32.636Z,8.20
2024-03-31T06:15:04.479Z,5.90
2024-03-31T06:17:36.404Z,6.50
2024-03-31T06:20:10.227Z,5.00
2024-03-31T06:22:43.673Z,4.50
2024-03-31T06:25:13.782Z,5.30
2024-03-31T06:27:43.586Z,4.40
2024-03-31T06:30:13.388Z,4.70
2024-03-31T06:32:44.565Z,3.60
2024-03-31T06:35:14.466Z,4.40
2024-03-31T06:37:44.104Z,3.80
2024-03-31T06:40:14.206Z,3.60
2024-03-31T06:42:43.842Z,3.20
2024-03-31T06:45:17.210Z,3.50
2024-03-31T06:47:47.027Z,3.50
2024-03-31T06:50:17.195Z,3.90
2024-03-31T06:52:46.854Z,3.40
2024-03-31T06:55:17.273Z,3.00
2024-03-31T06:57:47.460Z,3.40
2024-03-31T07:00:18.308Z,4.20
2024-03-31T07:02:51.332Z,3.80
2024-03-31T07:05:22.658Z,4.20
2024-03-31T07:07:53.297Z,4.60
2024-03-31T07:10:25.210Z,3.70
2024-03-31T07:12:57.384Z,3.60
2024-03-31T07:15:27.440Z,4.00
2024-03-31T07:18:11.377Z,4.10
2024-03-31T07:20:42.008Z,4.10
2024-03-31T07:23:12.249Z,4.40
2024-03-31T07:25:42.417Z,3.10
2024-03-31T07:28:15.887Z,3.90
2024-03-31T07:30:47.141Z,4.40
2024-03-31T07:33:18.085Z,5.20
2024-03-31T07:35:49.664Z,5.50
2024-03-31T07:38:22.510Z,3.20
2024-03-31T07:40:52.873Z,3.40
2024-03-31T07:43:25.386Z,3.50
2024-03-31T07:45:56.430Z,4.00
2024-03-31T07:48:26.789Z,3.50
2024-03-31T07:50:56.466Z,2.80
2024-03-31T07:53:27.977Z,3.00
2024-03-31T07:56:10.823Z,2.90
2024-03-31T07:58:41.441Z,2.80
2024-03-31T08:01:12.993Z,3.00
2024-03-31T08:03:44.794Z,4.20
2024-03-31T08:06:15.029Z,4.50
2024-03-31T08:09:36.993Z,3.00
2024-03-31T08:14:41.971Z,3.30
2024-03-31T08:17:11.801Z,3.70
2024-03-31T08:19:41.289Z,2.90
2024-03-31T08:22:12.465Z,3.40
2024-03-31T08:24:42.649Z,3.30
2024-03-31T08:27:14.961Z,3.80
2024-03-31T08:29:44.625Z,3.00
2024-03-31T08:32:15.058Z,3.20
2024-03-31T08:34:47.899Z,2.80
2024-03-31T08:37:23.703Z,3.30
2024-03-31T08:39:53.316Z,2.40
2024-03-31T08:42:44.865Z,3.10
2024-03-31T08:45:14.953Z,3.50
2024-03-31T08:47:46.059Z,2.40
2024-03-31T08:50:15.699Z,2.50
2024-03-31T08:52:45.200Z,2.70
2024-03-31T08:55:15.175Z,3.50
2024-03-31T08:57:46.017Z,3.50
2024-03-31T09:00:55.996Z,4.10
2024-03-31T09:03:28.629Z,2.60
2024-03-31T09:06:00.185Z,3.00
2024-03-31T09:08:39.866Z,3.80
2024-03-31T09:11:11.736Z,4.80
2024-03-31T09:13:43.959Z,3.40
2024-03-31T09:16:13.890Z,3.70
2024-03-31T09:18:45.598Z,4.00
2024-03-31T09:21:15.179Z,3.50
2024-03-31T09:23:44.926Z,3.40
2024-03-31T09:26:15.952Z,4.10
2024-03-31T09:28:46.045Z,3.90
2024-03-31T09:31:22.519Z,3.40
2024-03-31T09:33:53.497Z,5.00
2024-03-31T09:36:23.449Z,3.80
2024-03-31T09:38:55.622Z,3.30
2024-03-31T09:41:39.866Z,4.00
2024-03-31T09:44:09.435Z,4.10
2024-03-31T09:46:39.187Z,3.20
2024-03-31T09:49:15.081Z,3.70
2024-03-31T09:51:51.099Z,3.90
2024-03-31T09:54:35.562Z,3.70
2024-03-31T09:57:13.831Z,3.70
2024-03-31T09:59:58.986Z,3.50
2024-03-31T10:02:34.158Z,3.90
2024-03-31T10:05:45.521Z,4.30
2024-03-31T10:08:35.306Z,3.80
2024-03-31T10:11:06.676Z,3.30
2024-03-31T10:13:38.614Z,2.70
2024-03-31T10:16:10.802Z,2.90
2024-03-31T10:18:41.927Z,3.90
2024-03-31T10:21:13.251Z,2.70
2024-03-31T10:23:48.088Z,3.00
2024-03-31T10:26:18.792Z,2.60
2024-03-31T10:28:51.082Z,3.20
2024-03-31T10:31:21.905Z,3.50
2024-03-31T10:33:51.835Z,3.10
2024-03-31T10:36:22.713Z,3.10
2024-03-31T10:38:52.335Z,6.90
2024-03-31T10:41:22.898Z,5.40
2024-03-31T10:43:57.773Z,3.00
2024-03-31T10:46:28.034Z,2.50
2024-03-31T10:48:58.561Z,2.70
2024-03-31T10:51:29.245Z,2.70
2024-03-31T10:54:20.768Z,3.50
2024-03-31T10:57:00.218Z,2.80
2024-03-31T10:59:32.304Z,2.30
2024-03-31T11:02:26.343Z,2.10
2024-03-31T11:05:17.915Z,2.90
2024-03-31T11:08:03.087Z,3.10
2024-03-31T11:11:14.193Z,3.20
2024-03-31T11:14:19.192Z,2.90
2024-03-31T11:16:50.695Z,2.70
2024-03-31T11:19:23.427Z,2.60
2024-03-31T11:22:07.421Z,4.60
2024-03-31T11:24:39.464Z,2.30
2024-03-31T11:27:10.778Z,1.60
2024-03-31T11:29:43.304Z,2.80
2024-03-31T11:32:34.858Z,3.20
2024-03-31T11:35:43.406Z,2.60
2024-03-31T11:38:24.638Z,3.60
2024-03-31T11:40:55.024Z,3.00
2024-03-31T11:43:46.813Z,3.20
2024-03-31T11:46:23.290Z,2.50
2024-03-31T11:49:00.733Z,2.20
2024-03-31T11:51:39.375Z,2.50
2024-03-31T11:54:11.256Z,2.20
2024-03-31T11:56:43.664Z,2.80
2024-03-31T11:59:22.003Z,3.10
2024-03-31T12:02:03.123Z,2.60
2024-03-31T12:04:38.053Z,2.80
2024-03-31T12:07:08.913Z,2.40
2024-03-31T12:09:43.985Z,3.70
2024-03-31T12:12:37.637Z,2.30
2024-03-31T12:15:16.050Z,1.90
2024-03-31T12:18:03.444Z,2.20
2024-03-31T12:20:38.205Z,2.10
2024-03-31T12:23:10.426Z,2.00
2024-03-31T12:25:44.832Z,1.70
2024-03-31T12:28:32.938Z,2.50
2024-03-31T12:31:21.762Z,1.60
2024-03-31T12:35:25.856Z,1.80
2024-03-31T12:46:40.457Z,2.80
2024-03-31T12:49:56.637Z,2.30
2024-03-31T12:52:48.198Z,1.50
2024-03-31T12:55:29.318Z,1.50
2024-03-31T12:58:04.205Z,1.90
2024-03-31T13:00:44.859Z,2.40
2024-03-31T13:03:56.897Z,2.20
2024-03-31T13:06:44.019Z,2.70
2024-03-31T13:09:24.821Z,1.80
2024-03-31T13:11:55.781Z,1.80
2024-03-31T13:14:28.077Z,1.40
2024-03-31T13:17:01.378Z,2.40
2024-03-31T13:19:32.365Z,1.70
2024-03-31T13:22:06.144Z,2.30
2024-03-31T13:24:40.585Z,1.50
2024-03-31T13:27:12.989Z,1.60
2024-03-31T13:29:46.954Z,1.80
2024-03-31T13:32:17.775Z,1.80
2024-03-31T13:34:47.290Z,1.50
2024-03-31T13:37:16.918Z,2.00
2024-03-31T13:39:46.685Z,1.60
2024-03-31T13:42:16.586Z,2.10
2024-03-31T13:44:46.569Z,1.60
2024-03-31T13:47:17.445Z,2.80
2024-03-31T13:49:47.472Z,2.30
2024-03-31T13:52:17.911Z,2.00
2024-03-31T13:54:48.625Z,1.70
2024-03-31T13:57:18.334Z,1.50
2024-03-31T13:59:47.969Z,1.60
2024-03-31T14:02:18.446Z,1.50
2024-03-31T14:04:48.368Z,1.80
2024-03-31T14:07:18.931Z,1.80
2024-03-31T14:09:48.523Z,2.00
2024-03-31T14:12:20.248Z,1.80
2024-03-31T14:14:50.920Z,1.60
2024-03-31T14:17:20.932Z,2.10
2024-03-31T14:19:52.711Z,1.70
2024-03-31T14:22:24.455Z,1.70
2024-03-31T14:24:54.177Z,2.40
2024-03-31T14:27:23.725Z,2.40
2024-03-31T14:29:53.452Z,2.80
2024-03-31T14:32:22.989Z,2.40
2024-03-31T14:34:52.740Z,2.00
2024-03-31T14:37:22.283Z,2.20
2024-03-31T14:39:52.227Z,2.20
2024-03-31T14:42:24.670Z,2.00
2024-03-31T14:44:54.969Z,1.90
2024-03-31T14:47:28.558Z,3.20
2024-03-31T14:49:58.382Z,2.10
2024-03-31T14:52:28.104Z,2.10
2024-03-31T14:54:57.780Z,3.10
2024-03-31T14:57:29.278Z,3.10
2024-03-31T15:00:06.523Z,3.20
2024-03-31T15:03:02.681Z,2.10
2024-03-31T15:05:32.730Z,2.30
2024-03-31T15:08:14.231Z,2.30
2024-03-31T15:10:54.670Z,2.80
2024-03-31T15:13:26.976Z,2.00
2024-03-31T15:16:10.382Z,3.00
2024-03-31T15:18:53.576Z,6.80
2024-03-31T15:22:10.877Z,2.30
2024-03-31T15:24:46.993Z,2.50
2024-03-31T15:27:45.382Z,2.50
2024-03-31T15:30:16.386Z,2.00
2024-03-31T15:32:47.316Z,2.40
2024-03-31T15:35:19.267Z,2.30
2024-03-31T15:37:50.900Z,4.30
2024-03-31T15:40:26.545Z,2.40
2024-03-31T15:42:57.250Z,2.80
2024-03-31T15:45:28.445Z,2.70
2024-03-31T15:47:58.187Z,3.20
2024-03-31T15:50:29.037Z,2.70
2024-03-31T15:52:58.505Z,2.50
2024-03-31T15:55:28.195Z,2.70
2024-03-31T15:57:57.595Z,3.80
2024-03-31T16:00:27.812Z,3.40
2024-03-31T16:02:57.381Z,3.10
2024-03-31T16:05:28.067Z,3.50
2024-03-31T16:07:57.437Z,4.20
2024-03-31T16:10:27.102Z,3.60
2024-03-31T16:12:56.998Z,3.80
2024-03-31T16:15:27.188Z,3.90
2024-03-31T16:17:56.869Z,3.60
2024-03-31T16:20:26.690Z,6.10
2024-03-31T16:22:56.284Z,5.40
2024-03-31T16:25:25.938Z,5.30
2024-03-31T16:27:55.540Z,4.60
2024-03-31T16:30:25.212Z,4.10
2024-03-31T16:32:54.808Z,3.70
2024-03-31T16:35:24.365Z,3.90
2024-03-31T16:37:54.530Z,3.40
2024-03-31T16:40:24.261Z,3.80
2024-03-31T16:42:55.841Z,4.70
2024-03-31T16:45:25.512Z,5.90
2024-03-31T16:47:55.171Z,5.60
2024-03-31T16:50:26.313Z,6.80
2024-03-31T16:52:55.852Z,7.10
2024-03-31T16:55:25.397Z,6.50
2024-03-31T16:57:55.158Z,6.50
2024-03-31T17:00:25.218Z,8.60
2024-03-31T17:02:54.634Z,11.30
2024-03-31T17:05:24.148Z,10.50
2024-03-31T17:07:54.750Z,7.80
2024-03-31T17:10:24.407Z,6.70
2024-03-31T17:12:53.852Z,6.40
2024-03-31T17:15:23.349Z,5.50
2024-03-31T17:17:53.135Z,5.40
2024-03-31T17:20:22.858Z,4.60
2024-03-31T17:22:52.297Z,4.40
2024-03-31T17:25:21.879Z,4.90
2024-03-31T17:27:51.934Z,6.20
2024-03-31T17:30:21.363Z,5.20
2024-03-31T17:32:50.950Z,7.20
2024-03-31T17:35:20.560Z,6.10
2024-03-31T17:37:50.110Z,7.00
2024-03-31T17:40:20.416Z,6.90
2024-03-31T17:42:49.846Z,7.60
2024-03-31T17:45:22.719Z,8.90
2024-03-31T17:47:52.318Z,9.50
2024-03-31T17:50:21.771Z,10.40
2024-03-31T17:52:51.131Z,10.30
2024-03-31T17:55:20.887Z,10.70
2024-03-31T17:57:50.826Z,9.40
2024-03-31T18:00:22.793Z,10.70
2024-03-31T18:02:52.287Z,11.00
2024-03-31T18:05:21.677Z,9.80
2024-03-31T18:07:51.278Z,7.70
2024-03-31T18:10:20.764Z,6.40
2024-03-31T18:12:50.504Z,5.60
2024-03-31T18:15:22.011Z,4.20
2024-03-31T18:17:51.495Z,3.20
2024-03-31T18:20:22.588Z,4.30
2024-03-31T18:22:52.389Z,2.70
2024-03-31T18:25:21.915Z,3.60
2024-03-31T18:27:51.437Z,4.10
2024-03-31T18:30:21.076Z,4.50
2024-03-31T18:32:51.702Z,4.20
2024-03-31T18:35:21.233Z,5.40
2024-03-31T18:37:50.949Z,3.80
2024-03-31T18:40:21.707Z,4.10
2024-03-31T18:42:51.208Z,5.10
2024-03-31T18:45:20.665Z,3.70
2024-03-31T18:47:51.294Z,3.40
2024-03-31T18:50:21.235Z,3.70
2024-03-31T18:52:50.728Z,4.40
2024-03-31T18:55:20.558Z,3.90
2024-03-31T18:57:50.155Z,3.00
2024-03-31T19:00:20.004Z,4.50
2024-03-31T19:02:56.042Z,6.90
2024-03-31T19:05:25.810Z,7.40
2024-03-31T19:07:55.226Z,6.50
2024-03-31T19:10:25.377Z,5.30
2024-03-31T19:12:55.199Z,4.20
2024-03-31T19:15:24.661Z,3.30
2024-03-31T19:17:54.315Z,3.40
2024-03-31T19:20:23.780Z,2.90
2024-03-31T19:22:53.605Z,3.10
2024-03-31T19:25:23.187Z,2.80
2024-03-31T19:27:54.703Z,2.70
2024-03-31T19:30:24.777Z,2.70
2024-03-31T19:32:53.179Z,2.30
2024-03-31T19:35:22.775Z,2.50
2024-03-31T19:37:55.646Z,3.50
2024-03-31T19:40:25.264Z,3.20
2024-03-31T19:42:54.773Z,4.10
2024-03-31T19:45:24.527Z,2.60
2024-03-31T19:47:54.031Z,2.40
2024-03-31T19:50:23.718Z,2.20
2024-03-31T19:52:55.894Z,2.10
2024-03-31T19:55:25.669Z,2.00
2024-03-31T19:57:58.133Z,1.90
2024-03-31T20:00:29.439Z,1.90
2024-03-31T20:02:59.024Z,2.30
2024-03-31T20:05:29.082Z,2.30
2024-03-31T20:07:59.031Z,2.40
2024-03-31T20:10:28.698Z,2.60
2024-03-31T20:12:59.592Z,2.70
2024-03-31T20:15:29.104Z,1.90
2024-03-31T20:17:58.471Z,2.70
2024-03-31T20:20:27.986Z,1.80
2024-03-31T20:22:57.703Z,1.90
2024-03-31T20:25:27.116Z,1.60
2024-03-31T20:27:56.863Z,1.90
2024-03-31T20:30:26.526Z,2.50
2024-03-31T20:32:56.521Z,2.50
2024-03-31T20:35:26.018Z,1.40
2024-03-31T20:37:56.510Z,1.90
2024-03-31T20:40:27.224Z,1.80
2024-03-31T20:42:56.704Z,1.80
2024-03-31T20:45:26.180Z,2.00
2024-03-31T20:47:55.950Z,1.80
2024-03-31T20:50:25.353Z,1.90
2024-03-31T20:52:56.232Z,1.80
2024-03-31T20:55:25.680Z,1.60
2024-03-31T20:57:55.861Z,2.00
2024-03-31T21:00:25.680Z,1.70
2024-03-31T21:02:55.431Z,3.30
2024-03-31T21:05:24.990Z,2.50
2024-03-31T21:07:54.407Z,3.50
2024-03-31T21:10:24.221Z,2.60
2024-03-31T21:12:53.758Z,2.80
2024-03-31T21:15:23.224Z,2.80
2024-03-31T21:17:56.203Z,2.10
2024-03-31T21:20:25.628Z,2.20
2024-03-31T21:22:57.535Z,2.40
2024-03-31T21:25:27.242Z,2.70
2024-03-31T21:27:56.764Z,2.20
2024-03-31T21:30:27.668Z,3.00
2024-03-31T21:32:57.135Z,2.90
2024-03-31T21:35:33.049Z,2.90
2024-03-31T21:38:02.582Z,2.90
2024-03-31T21:40:32.124Z,2.30
2024-03-31T21:43:01.791Z,2.90
2024-03-31T21:45:31.286Z,2.90
2024-03-31T21:48:00.714Z,3.00
2024-03-31T21:50:30.448Z,2.00
2024-03-31T21:53:00.054Z,2.40
2024-03-31T21:55:29.742Z,2.00
2024-03-31T21:57:59.280Z,1.60
2024-03-31T22:00:29.789Z,2.00
2024-03-31T22:02:59.340Z,1.80
2024-03-31T22:05:28.907Z,1.90
2024-03-31T22:07:58.397Z,2.00
2024-03-31T22:10:27.957Z,1.80
2024-03-31T22:12:59.519Z,1.70
2024-03-31T22:15:29.704Z,1.60
2024-03-31T22:17:59.468Z,1.90
2024-03-31T22:20:30.410Z,2.00
2024-03-31T22:22:59.919Z,1.80
2024-03-31T22:25:30.214Z,1.70
2024-03-31T22:27:59.882Z,2.00
2024-03-31T22:30:29.220Z,2.10
2024-03-31T22:32:58.955Z,1.50
2024-03-31T22:35:28.472Z,1.90
2024-03-31T22:37:58.570Z,2.00
2024-03-31T22:40:28.048Z,2.10
2024-03-31T22:42:57.646Z,1.90
2024-03-31T22:45:27.327Z,2.20
2024-03-31T22:47:57.185Z,2.30
2024-03-31T22:50:26.796Z,2.70
2024-03-31T22:52:56.444Z,2.40
2024-03-31T22:55:26.610Z,2.20
2024-03-31T22:57:57.241Z,2.00
2024-03-31T23:00:26.707Z,2.10
2024-03-31T23:02:56.205Z,1.60
2024-03-31T23:05:25.953Z,1.60
2024-03-31T23:07:55.436Z,1.50
2024-03-31T23:10:25.015Z,2.00
2024-03-31T23:12:54.453Z,2.30
2024-03-31T23:15:25.312Z,2.10
2024-03-31T23:17:54.748Z,2.20
2024-03-31T23:20:25.842Z,2.10
2024-03-31T23:22:56.639Z,1.80
2024-03-31T23:25:26.287Z,2.10
2024-03-31T23:27:55.731Z,2.70
2024-03-31T23:30:26.682Z,2.10
2024-03-31T23:32:58.604Z,2.20
2024-03-31T23:35:28.207Z,2.20
2024-03-31T23:37:58.692Z,2.50
2024-03-31T23:40:28.221Z,1.60
2024-03-31T23:42:57.931Z,2.10
2024-03-31T23:45:32.136Z,2.40
2024-03-31T23:48:01.669Z,2.50
2024-03-31T23:50:31.174Z,2.10
2024-03-31T23:53:00.697Z,2.80
2024-03-31T23:55:30.261Z,2.20
2024-03-31T23:57:59.863Z,2.60
